Time;durP1;ratioP1;P1;durP2;ratioP2;P2;SDS_P1;SDS_P2;PMS_P1;PMS_P2;Temp;Humidity;BMP_temperature;BMP_pressure;BME280_temperature;BME280_humidity;BME280_pressure;Samples;Min_cycle;Max_cycle;Signal;HPM_P1;HPM_P2
2021/08/28 05:02:32;;;;;;;3.40;2.13;;;;;;;13.08;88.58;92423.56;5038531;24;20523;-78
2021/08/28 05:05:05;;;;;;;7.38;3.10;;;;;;;13.09;88.11;92422.47;4738760;30;20431;-78
2021/08/28 05:07:31;;;;;;;3.92;2.20;;;;;;;13.12;87.93;92423.72;4751758;30;20539;-79
2021/08/28 05:09:58;;;;;;;2.65;2.08;;;;;;;13.14;87.76;92421.56;4723549;30;20048;-79
2021/08/28 05:12:24;;;;;;;4.03;2.53;;;;;;;13.18;87.52;92427.00;4721675;30;20561;-79
2021/08/28 05:15:22;;;;;;;4.45;2.35;;;;;;;13.25;85.33;92432.59;4715718;30;20127;-78
2021/08/28 05:17:51;;;;;;;2.85;1.80;;;;;;;13.32;85.09;92422.44;4717710;30;20527;-78
2021/08/28 05:20:20;;;;;;;3.42;2.58;;;;;;;13.35;84.91;92423.69;4692733;30;20057;-78
2021/08/28 05:23:06;;;;;;;4.40;2.80;;;;;;;13.43;85.59;92426.34;4719074;30;20535;-79
2021/08/28 05:25:52;;;;;;;3.95;2.30;;;;;;;13.51;85.82;92430.88;4742035;30;20475;-78
2021/08/28 05:28:18;;;;;;;6.57;2.97;;;;;;;13.58;86.53;92429.63;4752848;30;20064;-79
2021/08/28 05:30:44;;;;;;;3.58;2.28;;;;;;;13.63;85.94;92427.66;4741876;30;20052;-78
2021/08/28 05:33:10;;;;;;;4.88;2.70;;;;;;;13.70;86.43;92427.22;4741349;30;20085;-78
2021/08/28 05:35:36;;;;;;;4.68;3.30;;;;;;;13.81;85.52;92432.97;4739795;30;20053;-79
2021/08/28 05:38:10;;;;;;;3.50;2.30;;;;;;;13.94;84.94;92432.06;4737729;30;20124;-78
2021/08/28 05:40:37;;;;;;;5.78;3.35;;;;;;;14.08;84.68;92429.28;4738792;30;20057;-78
2021/08/28 05:43:03;;;;;;;2.42;1.73;;;;;;;14.16;84.15;92424.03;4711321;30;20059;-77
2021/08/28 05:45:49;;;;;;;3.78;2.70;;;;;;;14.27;83.34;92427.09;4725318;30;20044;-78
2021/08/28 05:48:15;;;;;;;2.78;1.83;;;;;;;14.26;83.55;92428.19;4733402;30;20048;-78
2021/08/28 05:50:40;;;;;;;4.45;2.33;;;;;;;14.32;83.26;92420.91;4737060;30;20049;-78
2021/08/28 05:53:06;;;;;;;5.05;2.67;;;;;;;14.41;82.80;92423.53;4743030;30;20125;-78
2021/08/28 05:55:32;;;;;;;5.57;2.25;;;;;;;14.30;82.14;92426.50;4769046;30;20535;-77
2021/08/28 05:57:58;;;;;;;3.33;2.13;;;;;;;14.41;81.96;92418.28;4757929;30;20447;-77
2021/08/28 06:00:25;;;;;;;4.90;2.72;;;;;;;14.56;81.72;92431.00;4737688;30;20144;-78
2021/08/28 06:03:03;;;;;;;3.85;2.42;;;;;;;14.72;81.21;92418.88;4752500;30;20688;-78
2021/08/28 06:05:28;;;;;;;4.85;2.67;;;;;;;14.83;80.14;92423.84;4740632;30;20056;-78
2021/08/28 06:08:13;;;;;;;3.20;1.98;;;;;;;14.96;79.30;92418.38;4742332;30;20047;-77
2021/08/28 06:10:57;;;;;;;4.03;2.40;;;;;;;15.23;78.30;92426.22;4732373;30;20047;-77
2021/08/28 06:13:48;;;;;;;3.00;1.77;;;;;;;15.51;76.85;92429.97;4736314;30;20067;-77
2021/08/28 06:16:19;;;;;;;3.78;2.03;;;;;;;15.66;73.68;92427.91;4720760;30;20056;-77
2021/08/28 06:18:45;;;;;;;3.45;2.08;;;;;;;15.82;73.21;92428.91;4718861;30;20423;-78
2021/08/28 06:21:11;;;;;;;7.35;2.60;;;;;;;16.38;73.22;92432.09;4746828;30;20459;-79
2021/08/28 06:23:37;;;;;;;3.20;1.92;;;;;;;18.02;68.58;92429.94;4734069;30;20106;-76
2021/08/28 06:26:32;;;;;;;2.30;1.83;;;;;;;21.86;55.81;92428.75;4748516;30;20049;-80
2021/08/28 06:28:58;;;;;;;3.00;1.83;;;;;;;24.30;47.56;92426.09;4737048;30;20452;-79
2021/08/28 06:31:23;;;;;;;2.70;1.75;;;;;;;26.04;41.90;92423.56;4730024;30;20076;-79
2021/08/28 06:33:49;;;;;;;4.28;2.40;;;;;;;26.85;39.54;92421.13;4732923;30;20056;-79
2021/08/28 06:36:18;;;;;;;4.18;1.63;;;;;;;26.76;41.92;92416.91;4726079;30;20048;-79
2021/08/28 06:39:13;;;;;;;3.70;1.80;;;;;;;26.96;42.72;92422.59;4684212;30;20050;-79
2021/08/28 06:41:57;;;;;;;4.60;2.10;;;;;;;26.82;41.43;92417.31;4750245;30;20140;-80
2021/08/28 06:44:41;;;;;;;2.25;1.70;;;;;;;25.97;43.43;92413.63;4737387;30;20114;-80
2021/08/28 06:47:27;;;;;;;4.40;2.50;;;;;;;27.11;41.17;92414.47;4734563;30;20083;-78
2021/08/28 06:50:11;;;;;;;4.18;2.22;;;;;;;27.41;41.44;92416.66;4750055;30;20071;-78
2021/08/28 06:52:55;;;;;;;2.65;1.65;;;;;;;27.10;39.93;92407.56;4747932;30;20108;-78
2021/08/28 06:55:39;;;;;;;4.18;2.15;;;;;;;28.83;37.38;92405.81;4744752;30;20110;-77
2021/08/28 06:58:24;;;;;;;3.13;1.92;;;;;;;29.21;30.76;92403.06;4723529;30;20076;-78
2021/08/28 07:01:26;;;;;;;2.65;1.50;;;;;;;25.82;36.29;92402.09;4712375;30;20079;-78
2021/08/28 07:04:10;;;;;;;2.67;1.70;;;;;;;24.29;39.31;92411.94;4740445;30;20087;-78
2021/08/28 07:06:56;;;;;;;2.60;1.60;;;;;;;25.70;37.36;92405.16;4753183;30;20527;-79
2021/08/28 07:09:22;;;;;;;2.63;1.52;;;;;;;24.88;38.33;92405.75;4739170;30;20151;-78
2021/08/28 07:11:48;;;;;;;3.30;1.85;;;;;;;22.36;44.42;92415.41;4736815;30;20049;-78
2021/08/28 07:14:15;;;;;;;2.05;1.38;;;;;;;21.19;46.11;92413.22;4750803;30;20049;-77
2021/08/28 07:16:42;;;;;;;2.95;1.83;;;;;;;20.59;50.28;92417.03;4720810;30;20040;-77
2021/08/28 07:19:08;;;;;;;1.70;1.10;;;;;;;20.68;50.01;92413.41;4735041;30;20324;-78
2021/08/28 07:21:52;;;;;;;2.38;1.50;;;;;;;20.36;59.70;92426.78;4737617;30;20048;-78
2021/08/28 07:24:18;;;;;;;2.53;1.40;;;;;;;20.50;59.01;92421.75;4736998;30;20056;-78
2021/08/28 07:26:46;;;;;;;2.05;1.30;;;;;;;19.65;59.85;92421.38;4736082;30;20056;-78
2021/08/28 07:29:32;;;;;;;2.78;1.38;;;;;;;18.70;65.16;92422.03;4738099;30;20055;-78
2021/08/28 07:31:58;;;;;;;3.58;1.63;;;;;;;18.50;58.50;92423.75;4736473;30;20041;-78
2021/08/28 07:34:24;;;;;;;2.03;1.23;;;;;;;18.27;60.22;92426.13;4720516;30;20155;-78
2021/08/28 07:36:49;;;;;;;2.28;1.48;;;;;;;17.56;67.06;92419.47;4723572;30;20053;-77
2021/08/28 07:39:15;;;;;;;1.85;1.33;;;;;;;17.50;70.52;92420.78;4718903;30;20061;-78
2021/08/28 07:41:41;;;;;;;2.22;1.63;;;;;;;17.60;70.73;92430.16;4733011;30;20064;-78
2021/08/28 07:44:07;;;;;;;2.40;1.35;;;;;;;17.79;68.46;92419.78;4733812;30;20504;-78
2021/08/28 07:51:04;;;;;;;4.72;1.85;;;;;;;17.78;67.41;92422.75;4720305;30;20064;-78
2021/08/28 07:56:59;;;;;;;1.42;1.17;;;;;;;18.19;66.14;92421.72;4733350;30;20049;-78
2021/08/28 07:59:26;;;;;;;1.63;1.05;;;;;;;18.36;58.14;92423.34;4719049;30;20057;-78
2021/08/28 08:05:12;;;;;;;1.80;1.13;;;;;;;19.13;52.82;92419.75;4734611;30;20117;-78
2021/08/28 08:11:50;;;;;;;1.23;0.82;;;;;;;19.08;53.30;92420.00;4737893;30;20431;-78
2021/08/28 08:14:35;;;;;;;1.77;1.25;;;;;;;18.55;56.06;92433.34;4735784;30;20102;-77
2021/08/28 08:17:23;;;;;;;1.92;1.17;;;;;;;18.95;54.43;92426.47;4735735;30;20061;-78
2021/08/28 08:20:09;;;;;;;1.58;0.88;;;;;;;19.14;56.59;92419.41;4716952;30;20084;-77
2021/08/28 08:27:06;;;;;;;1.63;1.15;;;;;;;19.64;50.60;92411.13;4737440;30;20063;-79
2021/08/28 08:29:50;;;;;;;2.45;1.33;;;;;;;19.89;50.22;92407.19;4724584;30;20111;-78
2021/08/28 08:32:37;;;;;;;2.35;1.20;;;;;;;19.52;48.14;92407.47;4738127;30;20500;-78
2021/08/28 08:35:04;;;;;;;1.55;1.23;;;;;;;20.00;51.92;92404.78;4721475;30;20057;-78
2021/08/28 08:37:33;;;;;;;3.20;1.05;;;;;;;19.57;51.57;92409.09;4708382;30;20053;-78
2021/08/28 08:39:59;;;;;;;2.63;1.30;;;;;;;19.39;52.77;92408.66;4700350;30;20057;-78
2021/08/28 08:42:35;;;;;;;1.77;1.20;;;;;;;19.33;52.50;92412.66;4709116;30;20167;-75
2021/08/28 08:45:04;;;;;;;1.52;1.10;;;;;;;19.46;52.36;92405.41;4730096;30;20040;-75
2021/08/28 08:47:32;;;;;;;1.30;0.90;;;;;;;19.86;53.80;92409.75;4730779;30;20051;-75
2021/08/28 08:49:59;;;;;;;1.30;0.88;;;;;;;19.41;53.68;92405.63;4732946;30;20056;-76
2021/08/28 08:52:36;;;;;;;1.85;1.17;;;;;;;20.18;53.79;92403.25;4718198;30;20415;-76
2021/08/28 08:55:20;;;;;;;2.20;1.17;;;;;;;19.94;54.50;92406.91;4718822;30;20056;-75
2021/08/28 08:57:47;;;;;;;2.85;1.38;;;;;;;19.74;52.88;92408.72;4720071;30;20435;-75
2021/08/28 09:00:14;;;;;;;2.40;1.33;;;;;;;19.76;50.76;92403.84;4727716;30;20045;-75
2021/08/28 09:03:00;;;;;;;3.03;1.10;;;;;;;20.05;52.29;92407.16;4727407;30;20055;-75
2021/08/28 09:05:29;;;;;;;3.97;1.08;;;;;;;19.82;52.79;92412.34;4715494;30;21338;-75
2021/08/28 09:07:54;;;;;;;1.25;0.88;;;;;;;19.47;53.10;92410.34;4728558;30;20259;-76
2021/08/28 09:10:20;;;;;;;2.88;1.05;;;;;;;19.41;53.55;92409.09;4727206;30;20515;-76
2021/08/28 09:12:45;;;;;;;1.85;1.20;;;;;;;19.48;54.32;92413.81;4747395;30;20707;-76
2021/08/28 09:15:12;;;;;;;1.77;1.33;;;;;;;19.66;55.09;92412.31;4742321;30;20528;-76
2021/08/28 09:17:39;;;;;;;1.80;1.17;;;;;;;19.78;51.90;92406.16;4712717;30;20040;-76
2021/08/28 09:20:24;;;;;;;2.70;1.27;;;;;;;19.47;53.42;92404.28;4741562;30;20056;-75
2021/08/28 09:23:01;;;;;;;2.13;1.42;;;;;;;19.49;53.68;92405.47;4742080;30;20105;-76
2021/08/28 09:25:26;;;;;;;2.20;1.27;;;;;;;19.68;53.73;92410.09;4740800;30;20576;-76
2021/08/28 09:27:52;;;;;;;2.63;1.42;;;;;;;20.01;53.83;92403.63;4712725;30;20048;-75
2021/08/28 09:30:25;;;;;;;2.20;1.20;;;;;;;20.29;52.12;92400.84;4712104;30;20500;-76
2021/08/28 09:32:56;;;;;;;0.55;0.55;;;;;;;20.30;51.65;92412.22;4744415;30;20048;-76
2021/08/28 09:35:24;;;;;;;1.43;0.90;;;;;;;20.09;50.67;92402.69;4728441;30;20261;-76
2021/08/28 09:38:03;;;;;;;3.15;1.40;;;;;;;19.50;50.94;92403.59;4750412;30;20365;-75
2021/08/28 09:40:32;;;;;;;2.25;1.23;;;;;;;19.54;53.51;92405.22;4729452;30;20114;-76
2021/08/28 09:43:04;;;;;;;2.83;1.30;;;;;;;19.15;53.80;92404.25;4753118;30;20044;-76
2021/08/28 09:45:31;;;;;;;1.30;0.95;;;;;;;19.12;55.38;92410.25;4734536;30;20039;-80
2021/08/28 09:47:57;;;;;;;1.77;1.10;;;;;;;19.10;54.46;92402.63;4747436;30;20051;-76
2021/08/28 09:50:38;;;;;;;1.17;0.85;;;;;;;18.74;56.18;92406.22;4747314;30;20052;-76
2021/08/28 09:53:09;;;;;;;2.08;1.25;;;;;;;19.32;56.30;92403.94;4729467;30;20388;-76
2021/08/28 09:55:36;;;;;;;1.98;1.10;;;;;;;19.79;53.77;92417.56;4745838;30;20393;-75
2021/08/28 09:58:03;;;;;;;1.98;1.30;;;;;;;19.85;53.14;92408.97;4746280;30;20143;-76
2021/08/28 10:00:31;;;;;;;2.72;1.33;;;;;;;19.70;53.50;92412.44;4728162;30;20067;-76
2021/08/28 10:03:03;;;;;;;2.35;1.50;;;;;;;19.70;55.74;92412.44;4727116;30;20044;-76
2021/08/28 10:05:29;;;;;;;;;;;;;;;19.48;54.55;92416.44;4746155;30;20175;-77
2021/08/28 10:07:58;;;;;;;1.75;1.10;;;;;;;19.61;53.04;92417.13;4754560;30;19926;-77
2021/08/28 10:10:25;;;;;;;1.67;1.15;;;;;;;19.71;54.27;92413.97;4729696;30;20131;-77
2021/08/28 10:12:51;;;;;;;1.23;0.95;;;;;;;20.23;52.81;92407.53;4750798;30;20044;-77
2021/08/28 10:15:18;;;;;;;2.55;1.08;;;;;;;20.25;53.66;92402.63;4737761;30;20135;-77
2021/08/28 10:17:45;;;;;;;3.17;1.25;;;;;;;20.54;52.69;92406.66;4732979;30;20052;-77
2021/08/28 10:20:12;;;;;;;1.50;1.10;;;;;;;21.33;49.11;92402.78;4745698;30;20048;-77
2021/08/28 10:22:41;;;;;;;2.47;1.33;;;;;;;20.22;53.23;92400.69;4745508;30;20048;-78
2021/08/28 10:25:10;;;;;;;3.20;1.65;;;;;;;20.25;51.31;92405.31;4751678;30;20057;-78
2021/08/28 10:27:38;;;;;;;2.33;1.40;;;;;;;20.76;52.23;92409.75;4744162;30;20053;-78
2021/08/28 10:30:08;;;;;;;2.17;1.40;;;;;;;20.23;51.58;92404.88;4741993;30;20143;-78
2021/08/28 10:32:35;;;;;;;2.05;1.33;;;;;;;20.58;51.84;92406.75;4746685;30;20052;-78
2021/08/28 10:35:02;;;;;;;1.95;1.25;;;;;;;20.74;50.62;92404.03;4743110;30;20135;-78
2021/08/28 10:37:28;;;;;;;2.08;1.25;;;;;;;19.51;52.22;92410.44;4706524;30;20470;-77
2021/08/28 10:39:56;;;;;;;1.45;0.85;;;;;;;19.04;53.80;92408.53;4740114;30;20132;-77
2021/08/28 10:42:22;;;;;;;2.75;1.15;;;;;;;19.04;56.90;92408.53;4750081;30;20048;-77
2021/08/28 10:44:52;;;;;;;2.42;1.45;;;;;;;19.11;53.61;92403.41;4751565;30;20075;-76
2021/08/28 10:47:26;;;;;;;4.13;1.77;;;;;;;19.82;56.04;92409.69;4730019;30;20630;-76
2021/08/28 10:50:08;;;;;;;2.17;1.20;;;;;;;20.09;51.43;92401.94;4745210;30;20052;-77
2021/08/28 10:52:39;;;;;;;1.58;1.13;;;;;;;21.13;49.99;92407.41;4745698;30;20047;-77
2021/08/28 10:55:07;;;;;;;2.60;1.50;;;;;;;20.59;51.89;92408.28;4748539;30;20040;-78
2021/08/28 10:57:33;;;;;;;3.08;1.50;;;;;;;20.57;52.06;92405.97;4745748;30;20055;-78
2021/08/28 11:00:11;;;;;;;1.80;1.10;;;;;;;21.41;49.81;92403.69;4747366;30;20056;-77
2021/08/28 11:05:15;;;;;;;2.63;1.30;;;;;;;21.73;49.31;92398.91;4742927;30;20115;-77
2021/08/28 11:07:42;;;;;;;2.78;1.33;;;;;;;21.44;47.05;92394.25;4745745;30;20138;-76
2021/08/28 11:10:20;;;;;;;5.65;1.33;;;;;;;22.00;49.03;92401.59;4746164;30;20071;-76
2021/08/28 11:13:03;;;;;;;1.77;1.05;;;;;;;21.90;45.43;92402.94;4745478;30;20056;-76
2021/08/28 11:15:31;;;;;;;2.15;1.40;;;;;;;21.71;47.36;92395.06;4746762;30;20043;-77
2021/08/28 11:18:09;;;;;;;1.95;1.10;;;;;;;21.62;47.90;92401.41;4745340;30;20036;-77
2021/08/28 11:20:43;;;;;;;2.58;1.38;;;;;;;21.09;48.95;92395.16;4744096;30;20421;-77
2021/08/28 11:23:14;;;;;;;1.92;1.20;;;;;;;20.34;50.04;92405.88;4742751;30;20051;-76
2021/08/28 11:25:46;;;;;;;2.28;1.52;;;;;;;21.02;51.49;92397.69;4729193;30;20048;-76
2021/08/28 11:28:14;;;;;;;1.58;0.95;;;;;;;21.21;48.93;92395.75;4745275;30;20063;-76
2021/08/28 11:30:46;;;;;;;1.33;0.80;;;;;;;21.24;47.87;92394.28;4743811;30;20043;-76
2021/08/28 11:33:20;;;;;;;1.45;0.98;;;;;;;21.55;48.06;92393.31;4746420;30;20407;-77
2021/08/28 11:35:48;;;;;;;3.17;1.40;;;;;;;21.88;47.16;92399.88;4747702;30;20076;-78
2021/08/28 11:38:13;;;;;;;1.48;1.02;;;;;;;20.32;51.55;92388.72;4751282;30;20048;-78
2021/08/28 11:40:40;;;;;;;1.98;1.02;;;;;;;19.94;52.39;92398.94;4735864;30;20052;-80
2021/08/28 11:43:11;;;;;;;2.60;1.38;;;;;;;20.10;50.75;92396.25;4752011;30;20515;-78
2021/08/28 11:45:40;;;;;;;3.03;1.48;;;;;;;20.17;50.57;92398.28;4752605;30;20055;-78
2021/08/28 11:48:12;;;;;;;3.20;1.67;;;;;;;20.63;49.22;92395.06;4754038;30;20408;-78
2021/08/28 11:50:38;;;;;;;2.03;1.20;;;;;;;21.09;48.67;92392.50;4755432;30;20496;-78
2021/08/28 11:53:05;;;;;;;2.00;1.10;;;;;;;20.58;49.77;92390.81;4754686;30;20055;-78
2021/08/28 11:55:36;;;;;;;3.08;1.38;;;;;;;21.11;48.67;92385.69;4752976;30;20052;-78
2021/08/28 11:58:13;;;;;;;1.42;0.95;;;;;;;21.76;46.06;92386.75;4736779;30;20044;-78
2021/08/28 12:00:39;;;;;;;2.15;1.10;;;;;;;22.22;46.19;92382.13;4745951;30;20056;-78
2021/08/28 12:03:07;;;;;;;2.65;1.13;;;;;;;22.70;45.42;92378.09;4750163;30;20403;-78
2021/08/28 12:05:33;;;;;;;1.88;1.15;;;;;;;22.61;43.47;92370.41;4751296;30;20048;-78
2021/08/28 12:07:59;;;;;;;2.03;1.23;;;;;;;22.39;45.82;92380.03;4734708;30;20056;-78
2021/08/28 12:10:25;;;;;;;2.08;1.13;;;;;;;21.97;46.00;92375.63;4750289;30;20499;-78
2021/08/28 12:12:59;;;;;;;1.88;1.15;;;;;;;22.32;44.39;92369.28;4751600;30;20102;-79
2021/08/28 12:15:26;;;;;;;1.33;0.90;;;;;;;21.68;45.67;92377.13;4751520;30;20056;-79
2021/08/28 12:17:52;;;;;;;1.48;1.02;;;;;;;20.81;46.81;92360.84;4752558;30;20043;-78
2021/08/28 12:20:31;;;;;;;1.42;0.98;;;;;;;20.92;47.70;92373.19;4752423;30;20411;-78
2021/08/28 12:23:00;;;;;;;3.13;1.58;;;;;;;20.52;49.91;92366.34;4751338;30;20059;-78
2021/08/28 12:25:26;;;;;;;0.98;0.70;;;;;;;21.12;45.01;92365.16;4751415;30;20048;-78
2021/08/28 12:27:53;;;;;;;2.33;1.30;;;;;;;21.37;46.89;92363.69;4738004;30;20553;-79
2021/08/28 12:30:23;;;;;;;1.40;0.93;;;;;;;21.79;44.98;92364.72;4753259;30;20510;-78
2021/08/28 12:32:48;;;;;;;3.97;1.30;;;;;;;21.55;44.88;92355.25;4751518;30;20128;-78
2021/08/28 12:35:14;;;;;;;0.70;0.63;;;;;;;20.91;46.31;92352.25;4749130;30;20058;-78
2021/08/28 12:37:40;;;;;;;1.42;1.00;;;;;;;21.56;44.86;92354.13;4737321;30;20052;-78
2021/08/28 12:40:14;;;;;;;2.15;1.27;;;;;;;21.49;45.98;92346.03;4752773;30;20040;-78
2021/08/28 12:42:44;;;;;;;2.20;1.00;;;;;;;21.39;47.98;92347.34;4750179;30;20048;-78
2021/08/28 12:45:14;;;;;;;1.67;1.10;;;;;;;21.97;45.51;92343.66;4751277;30;20048;-78
2021/08/28 12:47:43;;;;;;;2.22;1.30;;;;;;;20.67;48.03;92343.50;4748644;30;20139;-78
2021/08/28 12:50:10;;;;;;;2.30;1.52;;;;;;;20.56;48.61;92351.25;4751411;30;20522;-78
2021/08/28 12:52:42;;;;;;;1.42;1.02;;;;;;;19.99;50.17;92344.75;4749025;30;20083;-78
2021/08/28 12:55:37;;;;;;;2.05;1.15;;;;;;;20.37;50.84;92343.25;4749153;30;20519;-78
2021/08/28 12:58:06;;;;;;;0.63;0.52;;;;;;;19.69;50.69;92347.16;4737236;30;20067;-78
2021/08/28 13:00:40;;;;;;;1.67;0.90;;;;;;;19.54;51.60;92332.75;4748648;30;20037;-78
2021/08/28 13:03:24;;;;;;;0.75;0.57;;;;;;;19.21;54.10;92335.81;4745488;30;20072;-78
2021/08/28 13:05:49;;;;;;;1.67;1.05;;;;;;;19.16;53.22;92336.81;4729580;30;20145;-78
2021/08/28 13:08:15;;;;;;;1.67;1.05;;;;;;;19.03;54.85;92338.03;4717206;30;20342;-78
2021/08/28 13:10:41;;;;;;;2.20;1.10;;;;;;;19.06;52.87;92332.03;4734493;30;20117;-79
2021/08/28 13:13:07;;;;;;;1.73;1.00;;;;;;;19.65;51.16;92331.13;4730821;30;20048;-78
2021/08/28 13:15:40;;;;;;;2.10;1.30;;;;;;;20.13;49.09;92329.13;4713240;30;20094;-79
2021/08/28 13:18:16;;;;;;;3.00;1.33;;;;;;;20.79;49.20;92322.03;4737733;30;20055;-79
2021/08/28 13:20:45;;;;;;;1.83;1.00;;;;;;;21.64;46.55;92321.16;4736023;30;20053;-79
2021/08/28 13:23:17;;;;;;;0.98;0.77;;;;;;;20.90;48.23;92316.91;4726133;30;20485;-79
2021/08/28 13:25:45;;;;;;;1.80;1.13;;;;;;;20.68;49.41;92310.44;4734479;30;20436;-79
2021/08/28 13:28:18;;;;;;;1.27;0.90;;;;;;;20.87;46.51;92306.97;4736435;30;20048;-79
2021/08/28 13:30:45;;;;;;;1.80;1.17;;;;;;;21.11;47.97;92310.41;4735626;30;20045;-79
2021/08/28 13:33:19;;;;;;;2.10;1.20;;;;;;;21.16;47.18;92312.75;4721060;30;20045;-79
2021/08/28 13:35:44;;;;;;;0.77;0.68;;;;;;;20.78;48.58;92299.25;4735612;30;20053;-79
2021/08/28 13:38:10;;;;;;;2.22;1.13;;;;;;;21.02;49.30;92304.56;4718479;30;20049;-79
2021/08/28 13:40:37;;;;;;;1.38;0.85;;;;;;;21.20;47.96;92302.94;4689419;30;20406;-79
2021/08/28 13:43:03;;;;;;;2.03;0.98;;;;;;;21.62;47.80;92302.09;4704174;30;20049;-79
2021/08/28 13:45:29;;;;;;;1.48;0.93;;;;;;;22.33;45.17;92314.81;4718606;30;20497;-79
2021/08/28 13:47:55;;;;;;;1.58;1.00;;;;;;;22.22;43.87;92304.81;4737063;30;20078;-79
2021/08/28 13:50:21;;;;;;;3.28;1.30;;;;;;;22.82;43.42;92303.16;4735328;30;20055;-79
2021/08/28 13:52:47;;;;;;;2.25;1.20;;;;;;;22.42;42.74;92300.06;4735408;30;20045;-79
2021/08/28 13:55:15;;;;;;;4.35;1.25;;;;;;;22.27;43.91;92289.59;4733171;30;20111;-79
2021/08/28 13:57:45;;;;;;;1.63;1.00;;;;;;;22.44;45.86;92294.38;4733882;30;20052;-80
2021/08/28 14:00:13;;;;;;;1.33;0.90;;;;;;;22.70;43.63;92292.72;4731394;30;20056;-78
2021/08/28 14:02:39;;;;;;;1.50;1.10;;;;;;;22.18;45.64;92295.97;4715018;30;20180;-78
2021/08/28 14:05:06;;;;;;;1.88;1.23;;;;;;;22.41;44.72;92287.88;4714060;30;20060;-79
2021/08/28 14:07:32;;;;;;;1.77;1.00;;;;;;;21.96;44.62;92291.50;4716514;30;20428;-77
2021/08/28 14:09:58;;;;;;;1.13;0.80;;;;;;;21.47;46.92;92285.13;4731130;30;20055;-78
2021/08/28 14:12:27;;;;;;;2.00;1.08;;;;;;;21.66;45.28;92280.81;4714571;30;20072;-78
2021/08/28 14:14:54;;;;;;;1.08;0.82;;;;;;;21.48;45.23;92277.91;4699454;30;20056;-78
2021/08/28 14:17:38;;;;;;;0.68;0.63;;;;;;;20.96;46.07;92290.78;4721007;30;20116;-78
2021/08/28 14:20:09;;;;;;;1.88;0.95;;;;;;;20.58;47.55;92287.88;4707533;30;20057;-77
2021/08/28 14:22:36;;;;;;;1.02;0.70;;;;;;;20.13;48.19;92281.31;4715656;30;20041;-77
2021/08/28 14:25:03;;;;;;;4.32;1.40;;;;;;;20.30;49.34;92274.00;4724572;30;20105;-77
2021/08/28 14:27:29;;;;;;;1.85;1.38;;;;;;;20.65;48.72;92275.81;4725096;30;20435;-78
2021/08/28 14:29:54;;;;;;;2.35;1.10;;;;;;;21.03;48.15;92271.50;4718586;30;20079;-78
2021/08/28 14:32:20;;;;;;;1.63;1.10;;;;;;;21.83;46.59;92277.63;4694645;30;20041;-78
2021/08/28 14:34:45;;;;;;;2.33;1.35;;;;;;;21.97;45.67;92274.38;4712218;30;20128;-78
2021/08/28 14:37:12;;;;;;;1.15;0.95;;;;;;;22.53;44.02;92267.41;4697751;30;20052;-78
2021/08/28 14:39:39;;;;;;;1.50;0.95;;;;;;;21.93;45.59;92276.22;4701680;30;20106;-77
2021/08/28 14:42:04;;;;;;;1.92;1.10;;;;;;;21.91;45.82;92273.16;4721738;30;20060;-78
2021/08/28 14:44:31;;;;;;;0.52;0.52;;;;;;;21.69;44.36;92270.22;4703015;30;20049;-78
2021/08/28 14:47:01;;;;;;;2.08;1.40;;;;;;;22.34;45.33;92265.72;4717096;30;20048;-78
2021/08/28 14:49:27;;;;;;;1.90;1.17;;;;;;;21.96;44.75;92262.19;4733505;30;20200;-78
2021/08/28 14:51:53;;;;;;;1.35;1.10;;;;;;;21.82;44.05;92258.22;4748459;30;20061;-78
2021/08/28 14:54:20;;;;;;;1.80;1.08;;;;;;;22.28;42.74;92251.91;4742951;30;20052;-77
2021/08/28 14:56:45;;;;;;;1.42;0.80;;;;;;;21.90;44.44;92274.28;4734893;30;20123;-77
2021/08/28 14:59:11;;;;;;;2.13;1.20;;;;;;;21.11;45.62;92265.16;4734972;30;20614;-78
2021/08/28 15:01:38;;;;;;;1.98;1.30;;;;;;;21.48;46.21;92265.38;4734769;30;20041;-78
2021/08/28 15:04:06;;;;;;;1.83;1.00;;;;;;;21.13;44.81;92270.91;4732777;30;20532;-77
2021/08/28 15:06:32;;;;;;;1.38;0.95;;;;;;;20.96;45.66;92272.94;4737573;30;20189;-79
2021/08/28 15:08:57;;;;;;;2.60;1.38;;;;;;;20.86;46.36;92270.09;4739033;30;20123;-79
2021/08/28 15:11:24;;;;;;;2.10;1.10;;;;;;;21.65;45.66;92274.72;4709207;30;20143;-79
2021/08/28 15:13:50;;;;;;;1.55;1.05;;;;;;;21.19;44.59;92275.56;4737220;30;20416;-80
2021/08/28 15:16:16;;;;;;;1.17;0.75;;;;;;;21.29;44.78;92278.75;4732877;30;20067;-79
2021/08/28 15:18:43;;;;;;;1.65;1.05;;;;;;;21.18;44.90;92273.25;4722888;30;20083;-78
2021/08/28 15:21:10;;;;;;;1.45;0.90;;;;;;;21.30;44.23;92277.59;4723075;30;20052;-80
2021/08/28 15:23:36;;;;;;;2.90;1.50;;;;;;;21.07;45.05;92282.97;4738295;30;20048;-80
2021/08/28 15:26:03;;;;;;;3.15;1.65;;;;;;;21.47;44.23;92271.06;4738976;30;20060;-79
2021/08/28 15:28:30;;;;;;;2.97;1.13;;;;;;;21.15;44.02;92279.31;4716335;30;20144;-79
2021/08/28 15:30:57;;;;;;;2.53;1.45;;;;;;;21.40;43.97;92277.81;4702630;30;20055;-78
2021/08/28 15:33:22;;;;;;;2.17;1.17;;;;;;;21.01;44.59;92274.53;4707132;30;20049;-78
2021/08/28 15:35:48;;;;;;;1.45;1.13;;;;;;;21.17;44.29;92280.47;4721256;30;20370;-80
2021/08/28 15:38:15;;;;;;;1.65;1.08;;;;;;;21.10;44.66;92277.72;4721524;30;20076;-80
2021/08/28 15:40:40;;;;;;;1.20;0.90;;;;;;;21.30;43.83;92275.75;4724857;30;20052;-79
2021/08/28 15:43:06;;;;;;;1.67;1.13;;;;;;;21.58;43.26;92272.72;4722141;30;20060;-80
2021/08/28 15:45:31;;;;;;;1.35;1.08;;;;;;;21.35;44.28;92282.66;4738590;30;20041;-80
2021/08/28 15:47:57;;;;;;;2.95;1.13;;;;;;;20.99;44.58;92285.50;4730814;30;20049;-80
2021/08/28 15:50:23;;;;;;;2.28;1.20;;;;;;;20.48;45.69;92280.44;4733091;30;20540;-78
2021/08/28 15:52:49;;;;;;;2.22;1.00;;;;;;;20.30;47.02;92279.34;4729731;30;20112;-79
2021/08/28 15:55:15;;;;;;;1.40;1.10;;;;;;;20.31;47.21;92286.16;4717277;30;20416;-79
2021/08/28 15:57:42;;;;;;;2.15;0.95;;;;;;;20.23;46.85;92279.97;4733194;30;20048;-80
2021/08/28 16:00:09;;;;;;;2.13;1.20;;;;;;;20.44;47.74;92284.91;4730541;30;20500;-78
2021/08/28 16:02:37;;;;;;;2.58;1.20;;;;;;;20.61;47.23;92280.31;4714533;30;20084;-80
2021/08/28 16:05:08;;;;;;;4.03;1.65;;;;;;;20.87;45.88;92275.03;4745035;30;20092;-79
2021/08/28 16:07:36;;;;;;;2.97;1.30;;;;;;;21.12;45.68;92277.34;4749269;30;20059;-78
2021/08/28 16:10:06;;;;;;;1.23;0.93;;;;;;;21.29;45.79;92279.50;4748282;30;20053;-79
2021/08/28 16:12:32;;;;;;;2.35;1.10;;;;;;;21.53;45.14;92273.06;4736118;30;20057;-80
2021/08/28 16:14:58;;;;;;;2.63;1.33;;;;;;;21.61;44.52;92277.31;4746206;30;20042;-79
2021/08/28 16:17:25;;;;;;;2.50;1.48;;;;;;;21.70;44.95;92285.06;4752544;30;20052;-79
2021/08/28 16:19:51;;;;;;;3.75;1.45;;;;;;;21.48;45.58;92284.00;4732779;30;20048;-78
2021/08/28 16:22:17;;;;;;;1.40;0.82;;;;;;;21.34;44.82;92276.53;4741307;30;20127;-78
2021/08/28 16:24:43;;;;;;;2.50;0.98;;;;;;;21.48;44.50;92276.03;4735782;30;20040;-78
2021/08/28 16:27:09;;;;;;;2.67;1.45;;;;;;;21.55;45.32;92278.78;4745950;30;20146;-76
2021/08/28 16:29:36;;;;;;;1.83;1.00;;;;;;;21.38;45.67;92287.25;4736143;30;20076;-77
2021/08/28 16:32:03;;;;;;;2.03;1.23;;;;;;;21.03;47.25;92282.94;4743328;30;20052;-81
2021/08/28 16:34:30;;;;;;;1.88;1.20;;;;;;;20.76;46.77;92268.78;4740603;30;20044;-78
2021/08/28 16:36:56;;;;;;;1.27;0.85;;;;;;;20.70;48.47;92275.53;4737157;30;20502;-79
2021/08/28 16:39:22;;;;;;;3.47;1.52;;;;;;;20.57;47.65;92281.00;4737063;30;20098;-79
2021/08/28 16:41:47;;;;;;;1.25;0.82;;;;;;;20.69;49.06;92285.41;4753261;30;20067;-78
2021/08/28 16:44:14;;;;;;;2.55;1.35;;;;;;;20.84;48.00;92285.63;4735387;30;20046;-78
2021/08/28 16:46:45;;;;;;;1.92;1.10;;;;;;;20.82;48.10;92278.00;4738730;30;20052;-79
2021/08/28 16:49:12;;;;;;;2.13;1.13;;;;;;;20.93;47.27;92275.53;4737960;30;20483;-79
2021/08/28 16:51:37;;;;;;;5.57;1.58;;;;;;;20.96;47.60;92283.56;4737169;30;20142;-78
2021/08/28 16:54:03;;;;;;;2.53;1.15;;;;;;;20.91;47.84;92275.09;4718129;30;20138;-79
2021/08/28 16:56:29;;;;;;;2.90;1.20;;;;;;;20.68;48.42;92277.78;4721535;30;20041;-80
2021/08/28 16:58:54;;;;;;;2.00;1.25;;;;;;;20.39;48.98;92275.31;4717099;30;20159;-79
2021/08/28 17:01:20;;;;;;;1.88;1.08;;;;;;;20.27;48.91;92280.03;4738682;30;20119;-79
2021/08/28 17:03:46;;;;;;;1.77;1.25;;;;;;;20.09;49.67;92277.81;4726892;30;20067;-79
2021/08/28 17:06:12;;;;;;;2.78;1.30;;;;;;;19.88;50.72;92272.06;4749480;30;20055;-80
2021/08/28 17:08:38;;;;;;;1.90;1.13;;;;;;;19.68;52.01;92277.34;4751491;30;20508;-80
2021/08/28 17:11:05;;;;;;;2.30;1.25;;;;;;;19.54;52.91;92280.47;4720349;30;20041;-79